aviador You're here:

NWWW Decoded Metar

NOUMEA in NEW CALEDONIA
Report Time2017-05-29 00:00:00
UTC Time2017-05-29 00:06:21
Flight Rules vfr VFR
Wind220° at 04 kt
W.Decomp.*RWY 29: 0.6 kt HW 4 kt LCW
W.Rank220° ranks 16
Current wind is below 220° avg. (6.9)
Visibility9999 m
Phenomena:N/A
Clouds:N/A
Expected CloudBase > 4,000 ft AGL from Temp-Dew spread
CeilingNone
Temp26°C (ISA +11)
Dew Point16°C (54% RH)
QNH1019 hPa
Density Alt1,375 ft
Elevation52 ft
Report Wrong Elevation
Raw Report
METAR NWWW 290000Z AUTO 22004KT 180V270 CAVOK 26/16 Q1019 NOSIG=

Extra information for NWWW:More info

Metar Taf Metar & Taf Last 4 Metars F.Rules Stats Wind Profile Meteogram Temp Stats Airport Information Weather charts Add Link Nearby VenuesMetar ALERT Operation Metar Decoded Social comments